• Join FlightAware (Why Join?)
  • Login
  • US Flag 
01:04AM EDT


 

Airport Tracker/Info


-or-


 

Live Flight TrackerFlight Track Log ✈ SKW6228 ✈ 29-Apr-2013 ✈ KDEN - KBOI

Flight Track Log - Related Links

Times and Time Zones

All times are in EDT time to prevent confusion due to time zone crossing. See the SKW6228 flight status page for this flight to view local times or setup timezone preferences in your user account.

Time Position Orientation Groundspeed Altitude Reporting Facility
EDT Latitude Longitude Course Direction KTS MPH feet Rate Location/Type
10:26AM 40.0992 -105.2861 297° West  Level Estimated
10:27AM 40.1463 -105.4092 297° West  Level Estimated
10:28AM 40.1932 -105.5325 297° West  Level Estimated
10:29AM 40.2401 -105.6560 296° West  Level Estimated
10:30AM 40.2868 -105.7796 296° West  Level Estimated
10:31AM 40.3334 -105.9034 296° West  Level Estimated
10:32AM 40.3799 -106.0274 296° West  Level Estimated
10:33AM 40.4262 -106.1515 296° West  Level Estimated
10:34AM 40.4724 -106.2758 296° West  Level Estimated
10:35AM 40.5184 -106.4003 296° West  Level Estimated
10:36AM 40.5643 -106.5249 296° West  Level Estimated
10:37AM 40.6101 -106.6497 296° West  Level Estimated
10:38AM 40.6558 -106.7747 296° West  Level Estimated
10:39AM 40.7013 -106.8998 296° West  Level Estimated
10:40AM 40.7467 -107.0252 296° West  Level Estimated
10:41AM 40.7919 -107.1507 295° West  Level Estimated
10:42AM 40.8370 -107.2763 295° West  Level Estimated
10:43AM 40.8820 -107.4022 295° West  Level Estimated
10:44AM 40.9268 -107.5282 295° West  Level Estimated
10:45AM 40.9715 -107.6544 295° West  Level Estimated
10:46AM 41.0161 -107.7807 295° West  Level Estimated
10:47AM 41.0605 -107.9072 295° West  Level Estimated
10:48AM 41.1048 -108.0339 295° West  Level Estimated
10:49AM 41.1490 -108.1608 295° West  Level Estimated
10:50AM 41.1930 -108.2878 295° West  Level Estimated
10:51AM 41.2369 -108.4150 295° West  Level Estimated
10:52AM 41.2806 -108.5424 295° West  Level Estimated
10:53AM 41.3242 -108.6700 295° West  Level Estimated
10:54AM 41.3676 -108.7977 294° West  Level Estimated
10:55AM 41.4109 -108.9256 294° West  Level Estimated
10:56AM 41.4541 -109.0536 294° West  Level Estimated
10:57AM 41.4971 -109.1819 294° West  Level Estimated
10:58AM 41.5400 -109.3103 294° West  Level Estimated
10:59AM 41.5827 -109.4388 294° West  Level Estimated
11:00AM 41.6253 -109.5676 294° West  Level Estimated
11:01AM 41.6677 -109.6965 294° West  Level Estimated
11:02AM 41.7100 -109.8256 294° West  Level Estimated
11:03AM 41.7522 -109.9548 294° West  Level Estimated
11:04AM 41.7942 -110.0842 294° West  Level Estimated
11:05AM 41.8361 -110.2138 293° West  Level Estimated
11:06AM 41.8778 -110.3436 293° West  Level Estimated
11:07AM 41.9194 -110.4735 293° West  Level Estimated
11:08AM 41.9608 -110.6036 293° West  Level Estimated
11:09AM 42.0021 -110.7338 293° West  Level Estimated
11:10AM 42.0432 -110.8643 293° West  Level Estimated
11:11AM 42.0842 -110.9949 293° West  Level Estimated
11:12AM 42.1250 -111.1256 293° West  Level Estimated
11:13AM 42.1657 -111.2566 293° West  Level Estimated
11:14AM 42.2063 -111.3877 293° West  Level Estimated
11:15AM 42.2467 -111.5190 293° West  Level Estimated
11:16AM 42.2869 -111.6504 293° West  Level Estimated
11:17AM 42.3270 -111.7820 292° West  Level Estimated
11:18AM 42.3669 -111.9138 292° West  Level Estimated
11:19AM 42.4067 -112.0457 292° West  Level Estimated
11:20AM 42.4464 -112.1778 292° West  Level Estimated
11:21AM 42.4859 -112.3101 292° West  Level Estimated
11:22AM 42.5252 -112.4426 292° West  Level Estimated
11:23AM 42.5644 -112.5752 292° West  Level Estimated
11:24AM 42.6034 -112.7080 292° West  Level Estimated
11:25AM 42.6423 -112.8409 292° West  Level Estimated
11:26AM 42.6810 -112.9740 292° West  Level Estimated
11:27AM 42.7196 -113.1073 292° West  Level Estimated
11:28AM 42.7580 -113.2407 291° West  Level Estimated
11:29AM 42.7962 -113.3744 291° West  Level Estimated
11:30AM 42.8343 -113.5081 291° West  Level Estimated
11:31AM 42.8723 -113.6421 291° West  Level Estimated
11:32AM 42.9101 -113.7762 291° West  Level Estimated
11:33AM 42.9477 -113.9104 291° West  Level Estimated
11:34AM 42.9852 -114.0449 291° West  Level Estimated
11:35AM 43.0225 -114.1794 291° West  Level Estimated
11:36AM 43.0596 -114.3142 291° West  Level Estimated
11:37AM 43.0966 -114.4491 291° West  Level Estimated
11:38AM 43.1335 -114.5842 291° West  Level Estimated
11:39AM 43.1702 -114.7194 290° West  Level Estimated
11:40AM 43.2067 -114.8549 290° West  Level Estimated
11:41AM 43.2430 -114.9904 290° West  Level Estimated
11:42AM 43.2792 -115.1262 290° West  Level Estimated
11:43AM 43.3153 -115.2620 290° West  Level Estimated
11:44AM 43.3512 -115.3981 290° West  Level Estimated
11:45AM 43.3869 -115.5343 290° West  Level Estimated
11:46AM 43.4224 -115.6707 290° West  Level Estimated
11:47AM 43.4578 -115.8072 290° West  Level Estimated
11:48AM 43.4931 -115.9439 290° West  Level Estimated
11:49AM 43.5281 -116.0807 290° West  Level Estimated
11:50AM 43.5631 -116.2178 289° West  Level Estimated
11:51AM 43.5644 -116.2229 289° West  Level Estimated
11:52AM 43.5644 -116.2229 324° Northwest  Level Estimated
11:53AM 43.5644 -116.2229 324° Northwest  Level Estimated
11:54AM 43.5644 -116.2229 324° Northwest  Level Estimated
11:55AM 43.5644 -116.2229 324° Northwest  Level Estimated
11:56AM 43.5644 -116.2229 324° Northwest  Level Estimated
11:57AM 43.5644 -116.2229 324° Northwest  Level Estimated